Terminal Aerodrome Forecast
Issued by NWS

Home | Current Version | Previous Version | Text Only | Print | Product List | Glossary On
Versions: 1 2 3 4 5 6 7 8 9 10 11 12 13 14 15 16 17 18 19 20 21 22
000
FTUS44 KMAF 171300 AAA
TAFFST
TAF AMD
KFST 171309Z 1713/1812 29012KT P6SM SCT250
     FM171400 32012G20KT P6SM FEW250
     FM171800 35012KT P6SM FEW250
     FM172100 03011KT P6SM FEW250
     FM180000 07012KT P6SM FEW250
     FM180800 14012KT P6SM SCT010
      TEMPO 1808/1812 BKN010=

USA.gov is the U.S. government's official web portal to all federal, state and local government web resources and services.